La Salle, Illinois
Current Conditions -  °F | °C
As of 7:55 AM on Monday 24 Nov 2014 (Local Time) from KVYS Reporting Station
Light Snow Light Snow  
Wind Chill: -5°   Ceiling: 900
Heat Index:   Visibility: 1.2mi
Dew Point:   Wind: 23mph
Humidity: 94%   Direction: 280°W
Pressure: 29.24"   Gusts: 32mph
Location:  41.33°N, 89.09°W
Report Text: KVYS 241355Z AUTO 28020G28KT 1 1/4SM -SN OVC009 01/01 A2924 RMK AO2 VIS 3/4V4 P0008 T00130005
Loading
Personal Weather Stations






























Interactive Weather Map New forecast layout! Learn more

10-Day Weather Forecast

Advertisements
Track Severe Weather on mobile